Time;durP1;ratioP1;P1;durP2;ratioP2;P2;SDS_P1;SDS_P2;PMS_P1;PMS_P2;Temp;Humidity;BMP_temperature;BMP_pressure;BME280_temperature;BME280_humidity;BME280_pressure;Samples;Min_cycle;Max_cycle;Signal;HPM_P1;HPM_P2
2021/05/06 00:03:04;;;;;;;;;;;4.40;99.90;;;;;;5093268;28;20020;-69
2021/05/06 00:10:24;;;;;;;;;;;4.50;99.90;;;;;;5087556;28;20027;-69
2021/05/06 00:34:21;;;;;;;;;;;4.70;99.90;;;;;;5099783;28;20280;-69
2021/05/06 00:36:47;;;;;;;;;;;4.70;99.90;;;;;;5111469;28;19908;-69
2021/05/06 00:39:17;;;;;;;;;;;4.70;99.90;;;;;;5112764;28;19907;-69
2021/05/06 00:57:54;;;;;;;;;;;4.60;99.90;;;;;;5091247;28;20252;-69
2021/05/06 01:00:35;;;;;;;;;;;4.70;99.90;;;;;;5082609;28;19918;-69
2021/05/06 01:05:32;;;;;;;;;;;4.70;99.90;;;;;;5087647;28;19998;-69
2021/05/06 01:08:22;;;;;;;;;;;4.70;99.90;;;;;;5089671;28;20334;-69
2021/05/06 01:13:22;;;;;;;;;;;4.80;99.90;;;;;;5077840;28;20157;-69
2021/05/06 01:15:48;;;;;;;;;;;4.70;99.90;;;;;;5090587;28;20261;-69
2021/05/06 01:18:13;;;;;;;;;;;4.80;99.90;;;;;;5091286;28;19954;-69
2021/05/06 01:20:41;;;;;;;;;;;4.80;99.90;;;;;;5084539;28;19908;-69
2021/05/06 01:23:07;;;;;;;;;;;4.80;99.90;;;;;;5111287;28;19927;-69
2021/05/06 01:25:32;;;;;;;;;;;4.80;99.90;;;;;;5090187;28;19930;-69
2021/05/06 01:28:02;;;;;;;;;;;4.80;99.90;;;;;;5090554;28;19915;-69
2021/05/06 01:30:38;;;;;;;;;;;4.90;99.90;;;;;;5081831;28;20358;-69
2021/05/06 01:33:09;;;;;;;;;;;4.90;99.90;;;;;;5091017;28;19908;-69
2021/05/06 01:35:43;;;;;;;;;;;4.90;99.90;;;;;;5090364;28;19912;-69
2021/05/06 01:41:06;;;;;;;;;;;4.90;99.90;;;;;;5091151;28;20048;-69
2021/05/06 01:59:22;;;;;;;;;;;4.90;99.90;;;;;;5091332;28;20304;-69
2021/05/06 02:01:48;;;;;;;;;;;5.00;99.90;;;;;;5083396;28;19930;-69
2021/05/06 02:04:13;;;;;;;;;;;5.00;99.90;;;;;;5091003;28;20345;-69
2021/05/06 02:06:39;;;;;;;;;;;5.00;99.90;;;;;;5089986;28;20127;-69
2021/05/06 02:09:04;;;;;;;;;;;5.00;99.90;;;;;;5091011;28;19908;-69
2021/05/06 02:11:30;;;;;;;;;;;5.00;99.90;;;;;;5091036;28;19956;-69
2021/05/06 02:13:57;;;;;;;;;;;5.00;99.90;;;;;;5091137;28;19999;-69
2021/05/06 02:16:33;;;;;;;;;;;5.00;99.90;;;;;;5089843;28;20346;-69
2021/05/06 02:18:59;;;;;;;;;;;5.00;99.90;;;;;;5090910;28;19981;-69
2021/05/06 02:21:24;;;;;;;;;;;5.00;99.90;;;;;;5090791;28;20424;-69
2021/05/06 02:23:50;;;;;;;;;;;5.00;99.90;;;;;;5090943;28;20011;-69
2021/05/06 02:26:15;;;;;;;;;;;5.00;99.90;;;;;;5090115;28;19908;-69
2021/05/06 02:28:41;;;;;;;;;;;5.00;99.90;;;;;;5090950;28;19908;-69
2021/05/06 02:31:06;;;;;;;;;;;4.90;99.90;;;;;;5082101;28;19934;-69
2021/05/06 02:33:32;;;;;;;;;;;4.90;99.90;;;;;;5090256;28;19916;-69
2021/05/06 02:35:57;;;;;;;;;;;4.90;99.90;;;;;;5092159;28;20498;-69
2021/05/06 02:38:23;;;;;;;;;;;4.80;99.90;;;;;;5094396;28;19969;-69
2021/05/06 02:40:48;;;;;;;;;;;4.90;99.90;;;;;;5094528;28;19919;-69
2021/05/06 02:43:14;;;;;;;;;;;4.80;99.90;;;;;;5094406;28;20384;-69
2021/05/06 02:45:39;;;;;;;;;;;4.90;99.90;;;;;;5093042;28;19908;-69
2021/05/06 02:48:05;;;;;;;;;;;4.90;99.90;;;;;;5094709;28;20363;-69
2021/05/06 02:50:31;;;;;;;;;;;4.90;99.90;;;;;;5094123;28;19912;-69
2021/05/06 02:53:06;;;;;;;;;;;4.90;99.90;;;;;;5094296;28;19909;-69
2021/05/06 02:55:41;;;;;;;;;;;5.00;99.90;;;;;;5094114;28;19915;-69
2021/05/06 02:58:15;;;;;;;;;;;5.00;99.90;;;;;;5094164;28;19915;-69
2021/05/06 03:03:25;;;;;;;;;;;5.10;99.90;;;;;;5093863;28;20110;-69
2021/05/06 03:05:55;;;;;;;;;;;5.10;99.90;;;;;;5092962;28;19955;-69
2021/05/06 03:24:58;;;;;;;;;;;5.10;99.90;;;;;;5093734;28;20297;-69
2021/05/06 03:27:28;;;;;;;;;;;5.10;99.90;;;;;;5092809;28;19930;-69
2021/05/06 03:43:57;;;;;;;;;;;5.10;99.90;;;;;;5093894;28;20016;-69
2021/05/06 03:49:41;;;;;;;;;;;5.00;99.90;;;;;;5092838;28;20332;-69
2021/05/06 04:37:47;;;;;;;;;;;4.20;99.90;;;;;;5091681;28;19939;-69
2021/05/06 04:56:38;;;;;;;;;;;4.00;99.90;;;;;;5091311;28;19940;-69
2021/05/06 05:04:33;;;;;;;;;;;4.40;99.90;;;;;;5091887;28;20003;-69
2021/05/06 05:07:19;;;;;;;;;;;4.50;99.90;;;;;;5090891;28;19931;-69
2021/05/06 05:10:13;;;;;;;;;;;4.60;99.90;;;;;;5091961;28;19919;-69
2021/05/06 05:23:30;;;;;;;;;;;5.00;99.90;;;;;;5091497;28;19919;-69
2021/05/06 05:26:05;;;;;;;;;;;5.00;99.90;;;;;;5091195;28;19996;-69
2021/05/06 05:28:31;;;;;;;;;;;5.10;99.90;;;;;;5091672;28;19934;-69
2021/05/06 05:30:56;;;;;;;;;;;5.20;99.90;;;;;;5082724;28;19915;-69
2021/05/06 05:33:24;;;;;;;;;;;5.30;99.90;;;;;;5089947;28;19919;-69
2021/05/06 05:44:01;;;;;;;;;;;5.60;99.90;;;;;;5091617;28;20277;-69
2021/05/06 05:56:57;;;;;;;;;;;5.80;99.90;;;;;;5090458;28;19928;-69
2021/05/06 05:59:22;;;;;;;;;;;5.90;99.90;;;;;;5090175;28;20280;-69
2021/05/06 06:01:48;;;;;;;;;;;5.90;99.90;;;;;;5082437;28;19912;-69
2021/05/06 06:04:14;;;;;;;;;;;6.00;99.90;;;;;;5091027;28;19915;-69
2021/05/06 06:06:39;;;;;;;;;;;6.00;99.90;;;;;;5090290;28;19916;-69
2021/05/06 06:09:05;;;;;;;;;;;6.10;99.90;;;;;;5091140;28;20389;-69
2021/05/06 06:11:32;;;;;;;;;;;6.20;99.90;;;;;;5094652;28;19990;-69
2021/05/06 06:14:03;;;;;;;;;;;6.30;99.90;;;;;;5095353;28;19908;-69
2021/05/06 06:16:30;;;;;;;;;;;6.30;99.90;;;;;;5094735;28;19908;-69
2021/05/06 06:19:00;;;;;;;;;;;6.30;99.90;;;;;;5095191;28;20376;-69
2021/05/06 06:24:07;;;;;;;;;;;6.30;99.90;;;;;;5095175;28;19908;-69
2021/05/06 06:26:33;;;;;;;;;;;6.30;99.90;;;;;;5093554;28;19912;-69
2021/05/06 06:29:19;;;;;;;;;;;6.30;99.90;;;;;;5094795;28;19953;-69
2021/05/06 06:31:49;;;;;;;;;;;6.30;99.90;;;;;;5086713;28;20315;-69
2021/05/06 06:34:15;;;;;;;;;;;6.40;99.90;;;;;;5093503;28;19908;-69
2021/05/06 06:36:44;;;;;;;;;;;6.40;99.90;;;;;;5090639;28;19912;-69
2021/05/06 06:39:11;;;;;;;;;;;6.50;99.90;;;;;;5083089;28;19916;-69
2021/05/06 06:41:36;;;;;;;;;;;6.50;99.90;;;;;;5080308;28;19916;-69
2021/05/06 06:44:02;;;;;;;;;;;6.60;99.90;;;;;;5074147;28;19908;-68
2021/05/06 06:46:28;;;;;;;;;;;6.60;99.90;;;;;;5076448;28;19936;-69
2021/05/06 06:48:54;;;;;;;;;;;6.70;99.90;;;;;;5093657;28;20442;-68
2021/05/06 06:51:19;;;;;;;;;;;6.90;99.90;;;;;;5089156;28;19912;-69
2021/05/06 06:53:45;;;;;;;;;;;7.00;99.90;;;;;;5094335;28;19916;-69
2021/05/06 06:56:10;;;;;;;;;;;7.20;99.90;;;;;;5092842;28;19912;-69
2021/05/06 06:58:39;;;;;;;;;;;7.30;99.90;;;;;;5094487;28;19957;-69
2021/05/06 07:01:04;;;;;;;;;;;7.50;99.90;;;;;;5084637;28;19995;-69
2021/05/06 07:03:30;;;;;;;;;;;7.50;99.90;;;;;;5094159;28;19944;-69
2021/05/06 07:05:56;;;;;;;;;;;7.60;99.90;;;;;;5093047;28;19908;-69
2021/05/06 07:08:24;;;;;;;;;;;7.70;99.90;;;;;;5094258;28;19991;-69
2021/05/06 07:10:53;;;;;;;;;;;7.90;99.90;;;;;;5092541;28;20276;-70
2021/05/06 07:13:19;;;;;;;;;;;8.00;99.90;;;;;;5093442;28;19942;-70
2021/05/06 07:15:49;;;;;;;;;;;8.10;99.90;;;;;;5093260;28;20001;-70
2021/05/06 07:18:15;;;;;;;;;;;8.20;99.90;;;;;;5094130;28;19918;-69
2021/05/06 07:20:43;;;;;;;;;;;8.20;99.90;;;;;;5094284;28;19912;-69
2021/05/06 07:23:09;;;;;;;;;;;8.20;99.90;;;;;;5092786;28;20353;-70
2021/05/06 07:25:34;;;;;;;;;;;8.30;99.90;;;;;;5090426;28;19912;-70
2021/05/06 07:28:08;;;;;;;;;;;8.40;99.90;;;;;;5093180;28;20396;-70
2021/05/06 07:30:33;;;;;;;;;;;8.50;99.90;;;;;;5085328;28;19913;-70
2021/05/06 07:32:59;;;;;;;;;;;8.70;99.90;;;;;;5093222;28;20298;-70
2021/05/06 07:35:24;;;;;;;;;;;8.80;99.90;;;;;;5093644;28;19908;-70
2021/05/06 07:37:50;;;;;;;;;;;8.90;99.90;;;;;;5092302;28;19916;-70
2021/05/06 07:40:15;;;;;;;;;;;9.20;99.90;;;;;;5093410;28;19966;-71
2021/05/06 07:42:40;;;;;;;;;;;9.40;99.90;;;;;;5093536;28;19908;-68
2021/05/06 07:45:07;;;;;;;;;;;9.60;99.90;;;;;;5093494;28;19916;-69
2021/05/06 07:47:32;;;;;;;;;;;10.00;99.90;;;;;;5092128;28;19912;-69
2021/05/06 07:49:58;;;;;;;;;;;10.30;99.90;;;;;;5093441;28;19912;-70
2021/05/06 07:52:23;;;;;;;;;;;10.70;99.90;;;;;;5093232;28;20316;-69
2021/05/06 07:54:49;;;;;;;;;;;10.80;99.90;;;;;;5093321;28;20726;-69
2021/05/06 07:57:14;;;;;;;;;;;10.90;99.90;;;;;;5091378;28;20001;-69
2021/05/06 07:59:40;;;;;;;;;;;10.80;99.90;;;;;;5089731;28;20361;-69
2021/05/06 08:02:06;;;;;;;;;;;10.70;99.90;;;;;;5087343;28;19976;-69
2021/05/06 08:04:32;;;;;;;;;;;10.70;99.90;;;;;;5092416;28;19912;-70
2021/05/06 08:06:57;;;;;;;;;;;10.80;99.90;;;;;;5091839;28;19908;-69
2021/05/06 08:09:23;;;;;;;;;;;10.90;99.90;;;;;;5092268;28;19915;-69
2021/05/06 08:11:51;;;;;;;;;;;11.00;99.90;;;;;;5092865;28;19914;-69
2021/05/06 08:14:17;;;;;;;;;;;11.00;99.90;;;;;;5092636;28;19995;-69
2021/05/06 08:16:42;;;;;;;;;;;11.00;99.90;;;;;;5091357;28;20396;-70
2021/05/06 08:19:08;;;;;;;;;;;11.00;99.90;;;;;;5092735;28;19915;-70
2021/05/06 08:21:33;;;;;;;;;;;10.90;99.90;;;;;;5092635;28;19948;-70
2021/05/06 08:23:58;;;;;;;;;;;10.90;99.90;;;;;;5092554;28;20304;-71
2021/05/06 08:26:26;;;;;;;;;;;10.70;99.90;;;;;;5090261;28;19951;-71
2021/05/06 08:28:52;;;;;;;;;;;10.60;99.90;;;;;;5092397;28;19908;-71
2021/05/06 08:31:18;;;;;;;;;;;10.50;99.90;;;;;;5091964;28;19919;-71
2021/05/06 08:33:43;;;;;;;;;;;10.40;99.90;;;;;;5092016;28;20369;-71
2021/05/06 08:36:09;;;;;;;;;;;10.30;99.90;;;;;;5091368;28;19908;-71
2021/05/06 08:38:35;;;;;;;;;;;10.30;99.90;;;;;;5092190;28;19926;-70
2021/05/06 08:41:01;;;;;;;;;;;10.30;99.90;;;;;;5092334;28;20002;-72
2021/05/06 08:43:30;;;;;;;;;;;10.30;99.90;;;;;;5092382;28;19947;-71
2021/05/06 08:45:58;;;;;;;;;;;10.30;99.90;;;;;;5091383;28;20254;-70
2021/05/06 08:48:23;;;;;;;;;;;10.30;99.90;;;;;;5091705;28;19908;-70
2021/05/06 08:50:49;;;;;;;;;;;10.20;99.90;;;;;;5092312;28;19916;-69
2021/05/06 08:53:17;;;;;;;;;;;10.30;99.90;;;;;;5092083;28;19915;-70
2021/05/06 08:55:43;;;;;;;;;;;10.20;99.90;;;;;;5090918;28;20015;-70
2021/05/06 08:58:09;;;;;;;;;;;10.20;99.90;;;;;;5092050;28;20021;-69
2021/05/06 09:00:34;;;;;;;;;;;10.10;99.90;;;;;;5083522;28;19920;-69
2021/05/06 09:03:01;;;;;;;;;;;10.00;99.90;;;;;;5091359;28;19981;-70
2021/05/06 09:05:26;;;;;;;;;;;9.90;99.90;;;;;;5091459;28;20309;-69
2021/05/06 09:07:52;;;;;;;;;;;9.90;99.90;;;;;;5086620;28;19933;-69
2021/05/06 09:10:34;;;;;;;;;;;9.90;99.90;;;;;;5091899;28;20366;-69
2021/05/06 09:13:00;;;;;;;;;;;9.90;99.90;;;;;;5111746;28;19912;-69
2021/05/06 09:15:26;;;;;;;;;;;9.90;99.90;;;;;;5111824;28;19931;-69
2021/05/06 09:17:53;;;;;;;;;;;9.80;99.90;;;;;;5109027;28;19911;-69
2021/05/06 09:20:20;;;;;;;;;;;9.70;99.90;;;;;;5111938;28;20393;-70
2021/05/06 09:22:50;;;;;;;;;;;9.60;99.90;;;;;;5094081;28;19916;-69
2021/05/06 09:25:24;;;;;;;;;;;9.50;99.90;;;;;;5090999;28;19908;-69
2021/05/06 09:28:09;;;;;;;;;;;9.40;99.90;;;;;;5088784;28;19923;-70
2021/05/06 09:30:40;;;;;;;;;;;9.30;99.90;;;;;;5081964;28;19961;-70
2021/05/06 09:33:07;;;;;;;;;;;9.20;99.90;;;;;;5091225;28;20327;-70
2021/05/06 09:35:40;;;;;;;;;;;9.10;99.90;;;;;;5089822;28;20101;-71
2021/05/06 09:38:10;;;;;;;;;;;9.00;99.90;;;;;;5091093;28;19927;-71
2021/05/06 09:40:45;;;;;;;;;;;8.90;99.90;;;;;;5088622;28;20163;-70
2021/05/06 09:43:21;;;;;;;;;;;8.80;99.90;;;;;;5090992;28;19997;-70
2021/05/06 09:45:46;;;;;;;;;;;8.80;99.90;;;;;;5089399;28;20369;-69
2021/05/06 09:48:13;;;;;;;;;;;8.80;99.90;;;;;;5090842;28;19912;-70
2021/05/06 09:50:40;;;;;;;;;;;8.70;99.90;;;;;;5090944;28;19916;-69
2021/05/06 09:53:09;;;;;;;;;;;8.70;99.90;;;;;;5091002;28;19943;-69
2021/05/06 09:55:34;;;;;;;;;;;8.70;99.90;;;;;;5089702;28;19908;-69
2021/05/06 09:58:18;;;;;;;;;;;8.70;99.90;;;;;;5090438;28;19914;-70
2021/05/06 10:00:45;;;;;;;;;;;8.70;99.90;;;;;;5082617;28;20351;-70
2021/05/06 10:03:21;;;;;;;;;;;8.70;99.90;;;;;;5089068;28;19908;-70
2021/05/06 10:05:48;;;;;;;;;;;8.60;99.90;;;;;;5089515;28;19955;-70
2021/05/06 10:08:14;;;;;;;;;;;8.60;99.90;;;;;;5090828;28;20331;-70
2021/05/06 10:10:41;;;;;;;;;;;8.60;99.90;;;;;;5090735;28;20261;-70
2021/05/06 10:13:09;;;;;;;;;;;8.70;99.90;;;;;;5090753;28;19923;-69
2021/05/06 10:15:35;;;;;;;;;;;8.80;99.90;;;;;;5089918;28;19954;-69
2021/05/06 10:18:00;;;;;;;;;;;8.90;99.90;;;;;;5090125;28;19912;-69
2021/05/06 10:20:27;;;;;;;;;;;8.90;99.90;;;;;;5090509;28;19908;-69
2021/05/06 10:22:53;;;;;;;;;;;8.90;99.90;;;;;;5090790;28;19915;-69
2021/05/06 10:25:20;;;;;;;;;;;9.10;99.90;;;;;;5090870;28;19992;-69
2021/05/06 10:27:46;;;;;;;;;;;9.20;99.90;;;;;;5089542;28;20338;-70
2021/05/06 10:30:11;;;;;;;;;;;9.30;99.90;;;;;;5082967;28;19912;-70
2021/05/06 10:32:37;;;;;;;;;;;9.40;99.90;;;;;;5110002;28;19953;-70
2021/05/06 10:35:08;;;;;;;;;;;9.50;99.90;;;;;;5110971;28;19912;-70
2021/05/06 10:37:37;;;;;;;;;;;9.60;99.90;;;;;;5109334;28;19923;-70
2021/05/06 10:40:23;;;;;;;;;;;9.60;99.90;;;;;;5110873;28;19965;-70
2021/05/06 10:42:49;;;;;;;;;;;9.60;99.90;;;;;;5110946;28;19915;-70
2021/05/06 10:45:14;;;;;;;;;;;9.60;99.90;;;;;;5111041;28;19908;-70
2021/05/06 10:47:43;;;;;;;;;;;9.60;99.90;;;;;;5109061;28;20438;-70
2021/05/06 10:50:13;;;;;;;;;;;9.50;99.90;;;;;;5111160;28;19912;-70
2021/05/06 10:52:40;;;;;;;;;;;9.40;99.90;;;;;;5110848;28;19960;-70
2021/05/06 10:55:09;;;;;;;;;;;9.40;99.90;;;;;;5110988;28;19939;-71
2021/05/06 10:57:35;;;;;;;;;;;9.40;99.90;;;;;;5112904;28;19991;-70
2021/05/06 11:00:01;;;;;;;;;;;9.50;99.90;;;;;;5101990;28;19940;-70
2021/05/06 11:02:44;;;;;;;;;;;9.60;99.90;;;;;;5091911;28;20352;-70
2021/05/06 11:05:11;;;;;;;;;;;9.80;99.90;;;;;;5094270;28;19908;-71
2021/05/06 11:07:37;;;;;;;;;;;10.00;99.90;;;;;;5091579;28;20281;-70
2021/05/06 11:10:04;;;;;;;;;;;10.20;99.90;;;;;;5094047;28;19916;-70
2021/05/06 11:12:39;;;;;;;;;;;10.50;99.90;;;;;;5094556;28;19931;-70
2021/05/06 11:15:05;;;;;;;;;;;10.70;99.90;;;;;;5093730;28;20292;-71
2021/05/06 11:17:37;;;;;;;;;;;10.90;99.90;;;;;;5092253;28;20330;-70
2021/05/06 11:20:11;;;;;;;;;;;11.10;99.90;;;;;;5093610;28;20002;-71
2021/05/06 11:22:47;;;;;;;;;;;11.20;99.90;;;;;;5093410;28;19955;-71
2021/05/06 11:27:57;;;;;;;;;;;11.10;99.90;;;;;;5071918;28;19952;-71
2021/05/06 11:30:30;;;;;;;;;;;11.10;99.90;;;;;;5074196;28;19924;-71
2021/05/06 11:32:55;;;;;;;;;;;11.20;99.90;;;;;;5092860;28;19908;-71
2021/05/06 11:35:21;;;;;;;;;;;11.20;99.90;;;;;;5093216;28;19915;-71
2021/05/06 11:37:52;;;;;;;;;;;11.20;99.90;;;;;;5091684;28;19920;-71
2021/05/06 11:40:26;;;;;;;;;;;11.10;99.90;;;;;;5093418;28;19912;-71
2021/05/06 11:42:52;;;;;;;;;;;11.00;99.90;;;;;;5093324;28;20312;-70
2021/05/06 11:45:25;;;;;;;;;;;11.00;99.90;;;;;;5093257;28;19908;-71
2021/05/06 11:47:51;;;;;;;;;;;11.00;99.90;;;;;;5091534;28;19912;-69
2021/05/06 11:50:24;;;;;;;;;;;11.00;99.90;;;;;;5093060;28;19969;-69
2021/05/06 11:52:50;;;;;;;;;;;11.00;99.90;;;;;;5093078;28;20429;-69
2021/05/06 11:55:49;;;;;;;;;;;11.10;99.90;;;;;;5093206;28;20324;-69
2021/05/06 11:58:21;;;;;;;;;;;11.00;99.90;;;;;;5070070;28;19995;-70
2021/05/06 12:00:47;;;;;;;;;;;11.00;99.90;;;;;;5084791;28;19961;-71
2021/05/06 12:03:12;;;;;;;;;;;10.90;99.90;;;;;;5100600;28;19916;-69
2021/05/06 12:05:53;;;;;;;;;;;10.90;99.90;;;;;;5112319;28;19911;-71
2021/05/06 12:08:20;;;;;;;;;;;10.80;99.90;;;;;;5112594;28;19908;-73
2021/05/06 12:10:45;;;;;;;;;;;10.60;99.90;;;;;;5111759;28;19955;-70
2021/05/06 12:13:11;;;;;;;;;;;10.50;99.90;;;;;;5113248;28;19947;-70
2021/05/06 12:15:37;;;;;;;;;;;10.50;99.90;;;;;;5112268;28;19908;-70
2021/05/06 12:18:14;;;;;;;;;;;10.60;99.90;;;;;;5112153;28;19967;-71
2021/05/06 12:20:49;;;;;;;;;;;10.60;99.90;;;;;;5113080;28;19908;-70
2021/05/06 12:23:15;;;;;;;;;;;10.50;99.90;;;;;;5113040;28;19914;-70
2021/05/06 12:25:40;;;;;;;;;;;10.50;99.90;;;;;;5111992;28;19908;-70
2021/05/06 12:28:06;;;;;;;;;;;10.50;99.90;;;;;;5111828;28;19907;-70
2021/05/06 12:30:31;;;;;;;;;;;10.40;99.90;;;;;;5094029;28;20370;-70
2021/05/06 12:32:57;;;;;;;;;;;10.30;99.90;;;;;;5091433;28;20270;-70
2021/05/06 12:35:22;;;;;;;;;;;10.30;99.90;;;;;;5092313;28;19951;-70
2021/05/06 12:37:50;;;;;;;;;;;10.30;99.90;;;;;;5089825;28;20440;-70
2021/05/06 12:40:16;;;;;;;;;;;10.20;99.90;;;;;;5092282;28;19944;-70
2021/05/06 12:42:42;;;;;;;;;;;10.10;99.90;;;;;;5091888;28;20347;-70
2021/05/06 12:45:13;;;;;;;;;;;10.00;99.90;;;;;;5092229;28;19998;-70
2021/05/06 12:47:45;;;;;;;;;;;10.00;99.90;;;;;;5090742;28;19908;-70
2021/05/06 12:50:11;;;;;;;;;;;9.90;99.90;;;;;;5091686;28;20334;-71
2021/05/06 12:52:47;;;;;;;;;;;9.90;99.90;;;;;;5091694;28;19951;-71
2021/05/06 12:55:21;;;;;;;;;;;9.90;99.90;;;;;;5092254;28;19912;-72
2021/05/06 12:58:02;;;;;;;;;;;9.90;99.90;;;;;;5090883;28;20411;-71
2021/05/06 13:00:28;;;;;;;;;;;9.80;99.90;;;;;;5084098;28;19908;-70
2021/05/06 13:03:10;;;;;;;;;;;9.80;99.90;;;;;;5089740;28;19919;-70
2021/05/06 13:05:43;;;;;;;;;;;9.80;99.90;;;;;;5090130;28;19908;-70
2021/05/06 13:08:08;;;;;;;;;;;9.80;99.90;;;;;;5091313;28;19908;-70
2021/05/06 13:10:37;;;;;;;;;;;9.80;99.90;;;;;;5091588;28;20242;-69
2021/05/06 13:13:03;;;;;;;;;;;9.70;99.90;;;;;;5092001;28;19915;-70
2021/05/06 13:15:29;;;;;;;;;;;9.50;99.90;;;;;;5091420;28;20384;-72
2021/05/06 13:17:56;;;;;;;;;;;9.40;99.90;;;;;;5090512;28;19908;-71
2021/05/06 13:20:26;;;;;;;;;;;9.40;99.90;;;;;;5090681;28;19915;-71
2021/05/06 13:23:00;;;;;;;;;;;9.30;99.90;;;;;;5091544;28;19912;-71
2021/05/06 13:25:44;;;;;;;;;;;9.30;99.90;;;;;;5091608;28;19908;-70
2021/05/06 13:28:35;;;;;;;;;;;9.20;99.90;;;;;;5090072;28;19951;-71
2021/05/06 13:31:04;;;;;;;;;;;9.20;99.90;;;;;;5081342;28;20019;-70
2021/05/06 13:33:29;;;;;;;;;;;9.20;99.90;;;;;;5090932;28;20273;-69
2021/05/06 13:36:02;;;;;;;;;;;9.20;99.90;;;;;;5090469;28;19908;-70
2021/05/06 13:38:46;;;;;;;;;;;9.10;99.90;;;;;;5091359;28;19925;-70
2021/05/06 13:41:15;;;;;;;;;;;9.00;99.90;;;;;;5091389;28;20479;-71
2021/05/06 13:43:41;;;;;;;;;;;8.90;99.90;;;;;;5091774;28;19995;-70
2021/05/06 13:46:10;;;;;;;;;;;8.80;99.90;;;;;;5090519;28;20006;-70
2021/05/06 13:48:36;;;;;;;;;;;8.70;99.90;;;;;;5090520;28;19908;-70
2021/05/06 13:51:02;;;;;;;;;;;8.70;99.90;;;;;;5091138;28;19916;-69
2021/05/06 13:53:28;;;;;;;;;;;8.60;99.90;;;;;;5091501;28;19908;-70
2021/05/06 13:55:53;;;;;;;;;;;8.60;99.90;;;;;;5090160;28;20303;-71
2021/05/06 13:58:18;;;;;;;;;;;8.50;99.90;;;;;;5089700;28;20327;-71
2021/05/06 14:00:45;;;;;;;;;;;8.50;99.90;;;;;;5082639;28;19908;-71
2021/05/06 14:03:10;;;;;;;;;;;8.50;99.90;;;;;;5097069;28;20292;-72
2021/05/06 14:05:36;;;;;;;;;;;8.50;99.90;;;;;;5109347;28;19908;-71
2021/05/06 14:08:01;;;;;;;;;;;8.50;99.90;;;;;;5110955;28;20056;-71
2021/05/06 14:10:27;;;;;;;;;;;8.60;99.90;;;;;;5111319;28;19951;-71
2021/05/06 14:12:53;;;;;;;;;;;8.50;99.90;;;;;;5092906;28;19919;-70
2021/05/06 14:15:18;;;;;;;;;;;8.50;99.90;;;;;;5110920;28;19908;-70
2021/05/06 14:17:44;;;;;;;;;;;8.50;99.90;;;;;;5110111;28;19915;-72
2021/05/06 14:20:10;;;;;;;;;;;8.50;99.90;;;;;;5111136;28;19912;-71
2021/05/06 14:22:35;;;;;;;;;;;8.40;99.90;;;;;;5111295;28;20333;-72
2021/05/06 14:25:01;;;;;;;;;;;8.40;99.90;;;;;;5111177;28;19961;-71
2021/05/06 14:27:26;;;;;;;;;;;8.30;99.90;;;;;;5108968;28;20019;-72
2021/05/06 14:29:52;;;;;;;;;;;8.20;99.90;;;;;;5101119;28;19917;-71
2021/05/06 14:32:17;;;;;;;;;;;8.10;99.90;;;;;;5107248;28;19915;-72
2021/05/06 14:34:42;;;;;;;;;;;8.20;99.90;;;;;;5113954;28;20014;-72
2021/05/06 14:37:08;;;;;;;;;;;8.20;99.90;;;;;;5113930;28;19912;-72
2021/05/06 14:39:33;;;;;;;;;;;8.20;99.90;;;;;;5115096;28;20526;-72
2021/05/06 14:41:59;;;;;;;;;;;8.10;99.90;;;;;;5115090;28;19915;-72
2021/05/06 14:44:24;;;;;;;;;;;8.10;99.90;;;;;;5115024;28;19908;-73
2021/05/06 14:46:50;;;;;;;;;;;8.00;99.90;;;;;;5114111;28;19908;-74
2021/05/06 14:49:15;;;;;;;;;;;8.10;99.90;;;;;;5114232;28;19907;-72
2021/05/06 14:51:41;;;;;;;;;;;8.10;99.90;;;;;;5115013;28;20027;-72
2021/05/06 14:54:06;;;;;;;;;;;8.10;99.90;;;;;;5113684;28;19908;-72
2021/05/06 14:56:32;;;;;;;;;;;8.10;99.90;;;;;;5113839;28;19950;-71
2021/05/06 14:58:57;;;;;;;;;;;8.20;99.90;;;;;;5114549;28;19951;-70
2021/05/06 15:01:23;;;;;;;;;;;8.20;99.90;;;;;;5089797;28;19952;-71
2021/05/06 15:03:48;;;;;;;;;;;8.20;99.90;;;;;;5088061;28;19930;-71
2021/05/06 15:06:14;;;;;;;;;;;8.20;99.90;;;;;;5093070;28;20343;-71
2021/05/06 15:08:44;;;;;;;;;;;8.30;99.90;;;;;;5093729;28;19961;-71
2021/05/06 15:11:09;;;;;;;;;;;8.50;99.90;;;;;;5094358;28;19971;-71
2021/05/06 15:13:35;;;;;;;;;;;8.60;99.90;;;;;;5092659;28;19929;-71
2021/05/06 15:16:00;;;;;;;;;;;8.60;99.90;;;;;;5090078;28;20402;-71
2021/05/06 15:18:26;;;;;;;;;;;8.50;99.90;;;;;;5090721;28;19915;-71
2021/05/06 15:20:52;;;;;;;;;;;8.50;99.90;;;;;;5091500;28;19912;-71
2021/05/06 15:23:18;;;;;;;;;;;8.50;99.90;;;;;;5091303;28;19908;-70
2021/05/06 15:25:43;;;;;;;;;;;8.50;99.90;;;;;;5090249;28;19908;-71
2021/05/06 15:28:09;;;;;;;;;;;8.40;99.90;;;;;;5091453;28;19908;-72
2021/05/06 15:30:35;;;;;;;;;;;8.30;99.90;;;;;;5085792;28;20011;-71
2021/05/06 15:33:01;;;;;;;;;;;8.30;99.90;;;;;;5093195;28;19916;-70
2021/05/06 15:35:27;;;;;;;;;;;8.20;99.90;;;;;;5094008;28;19908;-71
2021/05/06 15:37:53;;;;;;;;;;;8.20;99.90;;;;;;5092617;28;19947;-70
2021/05/06 15:40:18;;;;;;;;;;;8.30;99.90;;;;;;5093979;28;20065;-71
2021/05/06 15:42:44;;;;;;;;;;;8.30;99.90;;;;;;5092629;28;20557;-71
2021/05/06 15:45:12;;;;;;;;;;;8.30;99.90;;;;;;5092759;28;20889;-71
2021/05/06 15:47:37;;;;;;;;;;;8.30;99.90;;;;;;5091864;28;19969;-71
2021/05/06 15:50:07;;;;;;;;;;;8.30;99.90;;;;;;5093326;28;20269;-70
2021/05/06 15:52:33;;;;;;;;;;;8.20;99.90;;;;;;5093395;28;19912;-69
2021/05/06 15:54:58;;;;;;;;;;;8.10;99.90;;;;;;5092992;28;19909;-71
2021/05/06 15:57:24;;;;;;;;;;;8.10;99.90;;;;;;5092712;28;19931;-72
2021/05/06 15:59:50;;;;;;;;;;;8.00;99.90;;;;;;5087205;28;19950;-72
2021/05/06 16:02:16;;;;;;;;;;;8.00;99.90;;;;;;5089055;28;19912;-70
2021/05/06 16:04:42;;;;;;;;;;;8.10;99.90;;;;;;5093390;28;19908;-70
2021/05/06 16:07:07;;;;;;;;;;;8.10;99.90;;;;;;5092266;28;19915;-71
2021/05/06 16:09:33;;;;;;;;;;;8.10;99.90;;;;;;5092813;28;19912;-74
2021/05/06 16:11:58;;;;;;;;;;;8.00;99.90;;;;;;5092869;28;19908;-71
2021/05/06 16:14:24;;;;;;;;;;;8.00;99.90;;;;;;5092886;28;19908;-72
2021/05/06 16:16:49;;;;;;;;;;;8.10;99.90;;;;;;5090504;28;19919;-71
2021/05/06 16:19:16;;;;;;;;;;;8.10;99.90;;;;;;5091942;28;19908;-72
2021/05/06 16:21:42;;;;;;;;;;;8.10;99.90;;;;;;5092724;28;19908;-70
2021/05/06 16:24:08;;;;;;;;;;;8.10;99.90;;;;;;5092485;28;20320;-71
2021/05/06 16:26:34;;;;;;;;;;;8.10;99.90;;;;;;5091646;28;19912;-71
2021/05/06 16:29:00;;;;;;;;;;;8.10;99.90;;;;;;5092663;28;19908;-70
2021/05/06 16:31:25;;;;;;;;;;;8.20;99.90;;;;;;5083965;28;19920;-70
2021/05/06 16:33:57;;;;;;;;;;;8.40;99.90;;;;;;5092201;28;19908;-72
2021/05/06 16:36:46;;;;;;;;;;;8.50;99.90;;;;;;5091585;28;19915;-71
2021/05/06 16:44:30;;;;;;;;;;;8.40;99.90;;;;;;5092421;28;19912;-71
2021/05/06 16:46:57;;;;;;;;;;;8.40;99.90;;;;;;5091477;28;19921;-71
2021/05/06 16:49:24;;;;;;;;;;;8.40;99.90;;;;;;5091877;28;20429;-74
2021/05/06 16:51:49;;;;;;;;;;;8.40;99.90;;;;;;5092317;28;19912;-71
2021/05/06 16:54:15;;;;;;;;;;;8.50;99.90;;;;;;5091966;28;20357;-70
2021/05/06 16:56:40;;;;;;;;;;;8.50;99.90;;;;;;5091326;28;19908;-71
2021/05/06 16:59:06;;;;;;;;;;;8.60;99.90;;;;;;5092244;28;19966;-72
2021/05/06 17:01:34;;;;;;;;;;;8.60;99.90;;;;;;5084148;28;19971;-72
2021/05/06 17:03:59;;;;;;;;;;;8.70;99.90;;;;;;5091946;28;19923;-71
2021/05/06 17:06:25;;;;;;;;;;;8.70;99.90;;;;;;5090954;28;19907;-71
2021/05/06 17:08:51;;;;;;;;;;;8.60;99.90;;;;;;5091948;28;19999;-71
2021/05/06 17:11:17;;;;;;;;;;;8.60;99.90;;;;;;5092052;28;19957;-71
2021/05/06 17:13:42;;;;;;;;;;;8.60;99.90;;;;;;5092108;28;20001;-72
2021/05/06 17:16:08;;;;;;;;;;;8.50;99.90;;;;;;5089621;28;19910;-72
2021/05/06 17:18:34;;;;;;;;;;;8.50;99.90;;;;;;5091487;28;19912;-74
2021/05/06 17:20:59;;;;;;;;;;;8.50;99.90;;;;;;5090501;28;19908;-72
2021/05/06 17:23:25;;;;;;;;;;;8.50;99.90;;;;;;5091387;28;19912;-73
2021/05/06 17:25:51;;;;;;;;;;;8.50;99.90;;;;;;5090566;28;19916;-74
2021/05/06 17:28:17;;;;;;;;;;;8.50;99.90;;;;;;5091502;28;20212;-74
2021/05/06 17:30:42;;;;;;;;;;;8.50;99.90;;;;;;5082942;28;19963;-70
2021/05/06 17:33:08;;;;;;;;;;;8.50;99.90;;;;;;5089250;28;19995;-70
2021/05/06 17:35:33;;;;;;;;;;;8.60;99.90;;;;;;5090919;28;20266;-70
2021/05/06 17:38:00;;;;;;;;;;;8.60;99.90;;;;;;5090504;28;20373;-70
2021/05/06 17:40:26;;;;;;;;;;;8.70;99.90;;;;;;5085061;28;19916;-70
2021/05/06 17:42:51;;;;;;;;;;;8.60;99.90;;;;;;5070997;28;20046;-70
2021/05/06 17:45:17;;;;;;;;;;;8.60;99.90;;;;;;5071057;28;19920;-71
2021/05/06 17:47:42;;;;;;;;;;;8.60;99.90;;;;;;5069922;28;19912;-72
2021/05/06 17:50:08;;;;;;;;;;;8.60;99.90;;;;;;5071015;28;19923;-70
2021/05/06 17:52:33;;;;;;;;;;;8.60;99.90;;;;;;5070859;28;20303;-70
2021/05/06 17:54:59;;;;;;;;;;;8.60;99.90;;;;;;5069745;28;19912;-70
2021/05/06 17:57:25;;;;;;;;;;;8.60;99.90;;;;;;5069876;28;20280;-71
2021/05/06 17:59:50;;;;;;;;;;;8.60;99.90;;;;;;5071080;28;20429;-70
2021/05/06 18:02:16;;;;;;;;;;;8.70;99.90;;;;;;5087627;28;19961;-71
2021/05/06 18:04:43;;;;;;;;;;;8.70;99.90;;;;;;5090790;28;19908;-69